Time;durP1;ratioP1;P1;durP2;ratioP2;P2;SDS_P1;SDS_P2;PMS_P1;PMS_P2;Temp;Humidity;BMP_temperature;BMP_pressure;BME280_temperature;BME280_humidity;BME280_pressure;Samples;Min_cycle;Max_cycle;Signal;HPM_P1;HPM_P2
2022/12/31 00:00:37;;;;;;;1.40;0.70;;;;;;;13.60;100.00;97934.75;4090047;28;20678;-90
2022/12/31 00:02:41;;;;;;;1.70;0.70;;;;;;;13.61;100.00;97931.19;4107674;28;20642;-90
2022/12/31 00:04:44;;;;;;;1.40;0.80;;;;;;;13.60;100.00;97938.19;4076832;29;20638;-91
2022/12/31 00:06:48;;;;;;;3.00;0.90;;;;;;;13.58;100.00;97949.78;4092343;28;20668;-93
2022/12/31 00:08:54;;;;;;;1.50;0.90;;;;;;;13.62;100.00;97953.78;4109191;28;20810;-92
2022/12/31 00:10:57;;;;;;;4.00;2.40;;;;;;;13.61;100.00;97941.66;4108172;28;20637;-92
2022/12/31 00:13:02;;;;;;;4.93;3.40;;;;;;;13.59;100.00;97936.53;4091369;28;21432;-93
2022/12/31 00:15:06;;;;;;;8.23;4.40;;;;;;;13.60;100.00;97945.22;4104924;28;20636;-92
2022/12/31 00:17:10;;;;;;;4.10;2.57;;;;;;;13.60;100.00;97937.38;4092610;28;20702;-92
2022/12/31 00:19:14;;;;;;;1.97;0.73;;;;;;;13.60;100.00;97940.81;4090843;28;20649;-89
2022/12/31 00:21:19;;;;;;;1.40;0.80;;;;;;;13.64;100.00;97944.84;4092961;28;20631;-90
2022/12/31 00:23:22;;;;;;;1.50;0.80;;;;;;;13.65;100.00;97944.72;4095292;28;20647;-93
2022/12/31 00:25:27;;;;;;;1.13;0.60;;;;;;;13.71;100.00;97957.31;4096368;28;21292;-93
2022/12/31 00:27:30;;;;;;;1.60;0.80;;;;;;;13.74;100.00;97958.84;4093772;28;20681;-92
2022/12/31 00:29:33;;;;;;;4.50;2.47;;;;;;;13.74;100.00;97956.22;4091782;28;20639;-93
2022/12/31 00:31:38;;;;;;;2.00;1.30;;;;;;;13.80;100.00;97958.31;4078589;29;20642;-93
2022/12/31 00:33:42;;;;;;;2.43;1.43;;;;;;;13.81;100.00;97966.06;4095115;28;20643;-92
2022/12/31 00:35:45;;;;;;;2.20;0.83;;;;;;;13.82;100.00;97965.13;4093590;28;20638;-91
2022/12/31 00:37:51;;;;;;;4.07;1.30;;;;;;;13.84;100.00;97965.81;4094880;28;21243;-93
2022/12/31 00:39:54;;;;;;;1.30;0.80;;;;;;;13.85;100.00;97967.47;4093593;29;20649;-92
2022/12/31 00:41:59;;;;;;;2.33;0.90;;;;;;;13.85;100.00;97962.25;4108385;28;21476;-92
2022/12/31 00:44:02;;;;;;;1.40;0.73;;;;;;;13.89;100.00;97976.75;4089221;28;20639;-92
2022/12/31 00:46:06;;;;;;;4.13;1.00;;;;;;;13.94;100.00;97971.97;4088458;28;20636;-92
2022/12/31 00:48:10;;;;;;;1.77;0.90;;;;;;;13.96;100.00;97977.06;4107098;28;20655;-92
2022/12/31 00:50:13;;;;;;;1.40;0.87;;;;;;;13.97;100.00;97978.75;4074485;28;20657;-91
2022/12/31 00:52:17;;;;;;;2.57;1.20;;;;;;;13.96;100.00;97979.69;4077920;29;20636;-91
2022/12/31 00:54:20;;;;;;;1.20;0.60;;;;;;;13.98;99.60;97975.16;4088241;28;20643;-93
2022/12/31 00:56:24;;;;;;;1.23;0.73;;;;;;;14.03;99.22;97983.47;4079886;29;20639;-92
2022/12/31 00:58:29;;;;;;;1.03;0.57;;;;;;;14.01;100.00;97981.00;4077748;29;20638;-94
2022/12/31 01:00:32;;;;;;;1.30;0.80;;;;;;;14.04;99.04;97987.75;4074436;29;21538;-91
2022/12/31 01:02:35;;;;;;;1.60;0.80;;;;;;;14.04;99.41;97987.75;4092990;29;20697;-94
2022/12/31 01:04:39;;;;;;;2.83;1.00;;;;;;;14.04;99.33;97993.81;4088037;28;20894;-92
2022/12/31 01:06:42;;;;;;;1.50;0.60;;;;;;;14.06;100.00;97999.81;4092610;28;21078;-92
2022/12/31 01:08:48;;;;;;;1.27;0.70;;;;;;;14.05;98.81;98000.75;4105640;28;20676;-93
2022/12/31 01:13:12;;;;;;;1.70;1.03;;;;;;;14.09;99.64;98001.34;4079779;29;21275;-93
2022/12/31 01:15:17;;;;;;;1.23;0.67;;;;;;;14.09;99.71;98002.19;4076661;29;20624;-93
2022/12/31 01:17:20;;;;;;;3.20;0.80;;;;;;;14.10;99.16;98005.63;4092065;28;20698;-93
2022/12/31 01:19:26;;;;;;;2.00;0.83;;;;;;;14.11;99.33;98010.75;4077577;29;20801;-92
2022/12/31 01:21:30;;;;;;;2.17;0.87;;;;;;;14.10;99.75;98009.06;4078996;29;20635;-93
2022/12/31 01:23:33;;;;;;;1.50;0.80;;;;;;;14.10;99.70;98016.94;4075110;29;20649;-92
2022/12/31 01:25:37;;;;;;;1.97;0.73;;;;;;;14.10;98.81;98014.31;4076375;29;21195;-92
2022/12/31 01:27:40;;;;;;;2.03;0.93;;;;;;;14.11;98.17;98029.09;4093159;28;20672;-92
2022/12/31 01:29:43;;;;;;;2.07;1.43;;;;;;;14.09;99.43;98028.41;4107073;28;20670;-93
2022/12/31 01:31:48;;;;;;;1.10;0.70;;;;;;;14.10;99.51;98035.31;4090320;28;20632;-91
2022/12/31 01:33:51;;;;;;;1.90;0.80;;;;;;;14.09;99.65;98041.53;4080343;29;21662;-94
2022/12/31 01:35:54;;;;;;;3.87;0.83;;;;;;;14.10;99.18;98035.31;4090252;28;20709;-93
2022/12/31 01:37:58;;;;;;;1.80;0.70;;;;;;;14.13;99.54;98044.72;4102279;28;20729;-92
2022/12/31 01:40:01;;;;;;;1.53;0.80;;;;;;;14.14;99.55;98042.78;4089278;28;20643;-92
2022/12/31 01:42:04;;;;;;;1.83;1.13;;;;;;;14.14;99.61;98045.41;4091648;29;20655;-91
2022/12/31 01:44:41;;;;;;;1.77;0.90;;;;;;;14.13;98.86;98046.38;4092199;28;20689;-92
2022/12/31 01:46:48;;;;;;;1.57;0.97;;;;;;;14.15;98.71;98046.25;4073596;29;20633;-92
2022/12/31 01:48:53;;;;;;;2.27;1.03;;;;;;;14.14;99.47;98049.84;4108255;28;20635;-92
2022/12/31 01:50:56;;;;;;;1.70;1.10;;;;;;;14.14;99.43;98050.66;4090226;28;21252;-92
2022/12/31 01:53:02;;;;;;;1.50;0.83;;;;;;;14.16;99.15;98056.63;4109809;28;20658;-92
2022/12/31 01:55:10;;;;;;;4.37;1.00;;;;;;;14.18;99.09;98049.44;4076653;29;20630;-91
2022/12/31 01:57:14;;;;;;;1.50;0.80;;;;;;;14.16;98.99;98048.75;4106792;28;20626;-90
2022/12/31 01:59:17;;;;;;;4.00;0.80;;;;;;;14.15;99.77;98049.72;4089079;28;20829;-93
2022/12/31 02:01:24;;;;;;;1.40;0.77;;;;;;;14.18;98.25;98052.06;4076959;29;21367;-92
2022/12/31 02:03:29;;;;;;;1.93;1.00;;;;;;;14.20;99.15;98063.25;4097618;28;20667;-92
2022/12/31 02:05:38;;;;;;;4.60;1.00;;;;;;;14.19;98.72;98059.00;4094428;28;20700;-91
2022/12/31 02:07:41;;;;;;;1.37;0.87;;;;;;;14.19;99.02;98066.88;4082257;29;20661;-92
2022/12/31 02:09:44;;;;;;;2.13;1.13;;;;;;;14.16;99.04;98047.91;4094904;28;21288;-92
2022/12/31 02:11:48;;;;;;;2.37;1.10;;;;;;;14.16;98.57;98053.16;4097157;28;20752;-91
2022/12/31 02:13:54;;;;;;;2.03;1.23;;;;;;;14.14;98.95;98048.03;4092875;28;20636;-92
2022/12/31 02:16:05;;;;;;;2.90;1.40;;;;;;;14.13;97.75;98053.41;4097139;28;21324;-91
2022/12/31 02:18:14;;;;;;;2.80;1.40;;;;;;;14.11;98.14;98057.97;4080040;29;20678;-92
2022/12/31 02:20:46;;;;;;;1.60;1.07;;;;;;;14.08;98.50;98057.38;4079219;29;20651;-93
2022/12/31 02:23:06;;;;;;;1.80;1.10;;;;;;;14.07;98.51;98059.16;4081379;29;20719;-91
2022/12/31 02:25:23;;;;;;;1.57;1.03;;;;;;;13.98;99.10;98049.44;4094134;28;20646;-91
2022/12/31 02:27:37;;;;;;;2.60;0.93;;;;;;;13.95;98.80;98051.44;4098691;28;21273;-91
2022/12/31 02:30:16;;;;;;;1.30;0.80;;;;;;;13.95;98.74;98061.94;4097419;28;20691;-93
2022/12/31 02:32:23;;;;;;;3.23;1.13;;;;;;;13.88;98.92;98055.56;4100934;28;20633;-91
2022/12/31 02:34:31;;;;;;;1.30;0.80;;;;;;;13.86;98.96;98047.81;4096949;28;21257;-92
2022/12/31 02:36:36;;;;;;;2.00;1.10;;;;;;;13.85;99.19;98048.75;4111277;28;20646;-90
2022/12/31 02:38:45;;;;;;;2.57;0.90;;;;;;;13.83;98.62;98050.69;4078062;29;20645;-92
2022/12/31 02:40:48;;;;;;;2.30;1.17;;;;;;;13.80;98.13;98060.56;4108773;28;20678;-90
2022/12/31 02:42:51;;;;;;;2.10;0.93;;;;;;;13.76;99.10;98053.94;4094881;28;20635;-90
2022/12/31 02:44:57;;;;;;;3.10;1.00;;;;;;;13.77;98.59;98058.19;4113145;28;20662;-92
2022/12/31 02:47:12;;;;;;;1.70;1.00;;;;;;;13.80;98.72;98053.56;4096146;29;20644;-92
2022/12/31 02:49:20;;;;;;;2.60;0.90;;;;;;;13.83;97.98;98050.69;4107574;28;21083;-91
2022/12/31 02:51:34;;;;;;;1.40;1.00;;;;;;;13.88;97.97;98045.06;4110099;28;21301;-92
2022/12/31 02:54:10;;;;;;;1.90;1.00;;;;;;;13.89;98.23;98047.56;4095640;28;20649;-92
2022/12/31 02:56:17;;;;;;;2.37;1.03;;;;;;;13.91;97.80;98042.19;4079391;29;21238;-90
2022/12/31 03:02:12;;;;;;;1.40;0.90;;;;;;;13.95;97.20;98049.69;4109510;28;21230;-90
2022/12/31 03:03:11;;;;;;;1.70;1.00;;;;;;;13.91;96.46;98044.81;4096628;28;20642;-92
2022/12/31 03:05:18;;;;;;;4.63;1.30;;;;;;;13.93;96.13;98037.63;4080635;29;21285;-91
2022/12/31 03:07:23;;;;;;;1.77;1.23;;;;;;;13.89;96.21;98044.94;4096417;28;21336;-92
2022/12/31 03:09:27;;;;;;;4.03;1.07;;;;;;;13.91;97.24;98036.94;4095299;28;20696;-91
2022/12/31 03:13:50;;;;;;;1.60;1.10;;;;;;;13.92;96.21;98036.81;4089749;28;20643;-92
2022/12/31 03:15:53;;;;;;;1.50;1.10;;;;;;;13.94;95.61;98045.38;4089516;28;20644;-92
2022/12/31 03:17:59;;;;;;;2.00;0.80;;;;;;;13.97;96.18;98045.13;4095065;28;21401;-91
2022/12/31 03:22:26;;;;;;;2.43;1.00;;;;;;;14.02;95.99;98045.56;4107573;28;27470;-91
2022/12/31 03:26:49;;;;;;;1.70;1.00;;;;;;;13.98;95.58;98054.66;4105801;28;20639;-91
2022/12/31 03:28:53;;;;;;;1.97;1.10;;;;;;;13.98;95.22;98056.44;4087781;28;20662;-92
2022/12/31 03:30:58;;;;;;;2.50;1.30;;;;;;;14.00;95.72;98055.38;4091276;28;20633;-92
2022/12/31 03:33:02;;;;;;;1.63;1.03;;;;;;;13.98;94.96;98046.81;4094798;28;21006;-92
2022/12/31 03:35:06;;;;;;;2.23;1.00;;;;;;;14.03;95.44;98057.72;4093784;28;20648;-93
2022/12/31 03:37:10;;;;;;;3.30;0.97;;;;;;;14.03;95.18;98049.03;4108686;28;20640;-92
2022/12/31 03:39:15;;;;;;;2.00;1.10;;;;;;;14.07;94.45;98056.53;4088806;28;20645;-92
2022/12/31 03:41:18;;;;;;;3.63;1.43;;;;;;;14.11;95.04;98057.13;4077590;29;20652;-92
2022/12/31 03:43:21;;;;;;;1.60;1.07;;;;;;;14.13;94.63;98060.44;4092055;28;20735;-92
2022/12/31 03:45:24;;;;;;;1.73;1.13;;;;;;;14.12;93.77;98064.88;4077184;29;20649;-91
2022/12/31 03:47:27;;;;;;;1.77;0.90;;;;;;;14.12;94.83;98064.03;4090676;29;21046;-92
2022/12/31 03:49:30;;;;;;;1.60;1.10;;;;;;;14.12;94.00;98083.25;4092407;28;20660;-91
2022/12/31 03:51:34;;;;;;;2.70;1.00;;;;;;;14.09;93.79;98082.63;4092432;28;20654;-93
2022/12/31 03:53:37;;;;;;;2.40;1.00;;;;;;;14.07;94.30;98077.53;4092851;29;20651;-92
2022/12/31 03:55:42;;;;;;;1.93;1.10;;;;;;;14.06;94.36;98070.63;4072804;29;21243;-91
2022/12/31 03:57:45;;;;;;;2.03;1.03;;;;;;;14.07;94.86;98074.91;4109305;28;20674;-92
2022/12/31 03:59:48;;;;;;;1.67;1.10;;;;;;;14.09;94.05;98067.75;4078697;29;21313;-91
2022/12/31 04:01:51;;;;;;;2.83;0.90;;;;;;;14.05;94.50;98068.13;4105603;28;20632;-90
2022/12/31 04:03:55;;;;;;;1.80;1.00;;;;;;;14.07;95.10;98071.44;4093653;28;20647;-91
2022/12/31 04:05:58;;;;;;;1.80;0.83;;;;;;;14.07;95.14;98072.28;4107861;28;20650;-92
2022/12/31 04:08:01;;;;;;;2.30;1.10;;;;;;;14.15;93.94;98068.06;4108746;28;20643;-92
2022/12/31 04:10:06;;;;;;;1.40;0.90;;;;;;;14.20;94.96;98063.25;4090534;28;20735;-91
2022/12/31 04:12:11;;;;;;;1.40;0.90;;;;;;;14.21;93.93;98059.69;4094838;28;20650;-91
2022/12/31 04:14:15;;;;;;;1.50;1.00;;;;;;;14.25;94.27;98070.75;4093381;28;20642;-91
2022/12/31 04:16:19;;;;;;;4.10;1.10;;;;;;;14.31;95.13;98073.72;4076157;29;20672;-91
2022/12/31 04:18:22;;;;;;;2.43;1.10;;;;;;;14.36;94.64;98078.59;4079651;29;21215;-92
2022/12/31 04:20:25;;;;;;;2.83;0.93;;;;;;;14.39;94.44;98078.34;4109859;28;20649;-92
2022/12/31 04:22:28;;;;;;;2.13;1.03;;;;;;;14.43;95.26;98077.09;4091149;28;20635;-92
2022/12/31 04:24:31;;;;;;;1.80;0.90;;;;;;;14.45;93.58;98081.25;4107990;28;21480;-92
2022/12/31 04:26:34;;;;;;;1.30;0.80;;;;;;;14.52;93.40;98074.53;4094040;28;20638;-92
2022/12/31 04:28:39;;;;;;;1.67;0.90;;;;;;;14.55;93.33;98084.75;4107275;28;21324;-91
2022/12/31 04:30:42;;;;;;;1.70;0.90;;;;;;;14.60;95.05;98072.09;4081259;29;20649;-92
2022/12/31 04:32:45;;;;;;;2.13;0.83;;;;;;;14.62;93.89;98076.25;4078038;29;21084;-93
2022/12/31 04:34:48;;;;;;;1.60;0.80;;;;;;;14.68;93.02;98067.03;4093266;28;21012;-92
2022/12/31 04:36:51;;;;;;;1.80;0.90;;;;;;;14.70;92.97;98075.59;4088594;28;20640;-90
2022/12/31 04:38:55;;;;;;;4.03;1.10;;;;;;;14.73;94.55;98075.34;4108317;28;21068;-93
2022/12/31 04:41:17;;;;;;;2.43;1.07;;;;;;;14.76;93.08;98077.69;4076997;29;20645;-93
2022/12/31 04:43:20;;;;;;;1.63;0.80;;;;;;;14.79;93.94;98080.06;4093575;28;20637;-90
2022/12/31 04:45:24;;;;;;;6.20;0.90;;;;;;;14.85;92.32;98087.41;4092472;28;21566;-91
2022/12/31 04:47:27;;;;;;;1.20;0.70;;;;;;;14.91;93.68;98079.84;4088278;28;20652;-93
2022/12/31 04:49:30;;;;;;;1.27;0.70;;;;;;;14.96;92.98;98082.06;4092717;28;20650;-90
2022/12/31 04:51:34;;;;;;;1.70;0.80;;;;;;;15.03;92.58;98084.03;4092204;28;20632;-91
2022/12/31 04:53:37;;;;;;;1.97;0.90;;;;;;;15.04;92.80;98090.97;4107460;28;21529;-92
2022/12/31 04:55:41;;;;;;;1.70;0.80;;;;;;;15.08;92.83;98093.22;4090572;28;20636;-92
2022/12/31 04:57:44;;;;;;;1.17;0.70;;;;;;;15.07;93.40;98095.13;4105043;28;20747;-92
2022/12/31 04:59:47;;;;;;;1.20;0.63;;;;;;;15.08;93.70;98106.34;4107862;28;20647;-91
2022/12/31 05:01:51;;;;;;;1.60;0.90;;;;;;;15.09;92.80;98102.75;4092746;28;20626;-92
2022/12/31 05:03:55;;;;;;;1.20;0.70;;;;;;;15.11;91.48;98110.50;4073844;29;20661;-91
2022/12/31 05:06:01;;;;;;;1.47;0.80;;;;;;;15.15;92.07;98117.16;4105439;28;20967;-91
2022/12/31 05:08:05;;;;;;;1.30;0.70;;;;;;;15.18;92.69;98116.91;4075823;29;20645;-91
2022/12/31 05:10:08;;;;;;;1.50;1.07;;;;;;;15.19;92.17;98123.84;4089874;28;20668;-92
2022/12/31 05:12:11;;;;;;;1.73;0.80;;;;;;;15.20;91.43;98122.88;4090640;28;20634;-91
2022/12/31 05:14:14;;;;;;;3.30;1.10;;;;;;;15.24;90.69;98126.91;4090692;28;20736;-92
2022/12/31 05:16:17;;;;;;;1.63;0.80;;;;;;;15.25;91.76;98129.41;4076198;29;20638;-91
2022/12/31 05:18:22;;;;;;;1.30;0.70;;;;;;;15.26;91.81;98122.31;4086943;28;20640;-90
2022/12/31 05:20:25;;;;;;;1.40;0.80;;;;;;;15.26;92.43;98120.56;4092008;28;21069;-91
2022/12/31 05:22:28;;;;;;;1.47;0.97;;;;;;;15.23;92.65;98112.94;4094273;28;20672;-91
2022/12/31 05:24:32;;;;;;;1.47;0.97;;;;;;;15.21;91.28;98122.72;4088612;29;20629;-92
2022/12/31 05:26:35;;;;;;;1.77;0.70;;;;;;;15.23;92.43;98138.38;4107826;28;20652;-92
2022/12/31 05:28:38;;;;;;;2.17;0.90;;;;;;;15.25;92.25;98137.28;4092287;28;20648;-90
2022/12/31 05:30:42;;;;;;;1.43;0.80;;;;;;;15.29;91.19;98135.22;4088300;29;20656;-91
2022/12/31 05:32:45;;;;;;;1.20;0.70;;;;;;;15.29;91.00;98143.09;4090157;28;20635;-91
2022/12/31 05:34:52;;;;;;;1.60;0.80;;;;;;;15.27;91.52;98143.22;4072737;29;20656;-91
2022/12/31 05:36:55;;;;;;;1.30;0.70;;;;;;;15.28;91.92;98139.63;4091293;28;20643;-92
2022/12/31 05:39:01;;;;;;;1.73;0.90;;;;;;;15.29;91.38;98143.09;4092106;28;20683;-92
2022/12/31 05:41:06;;;;;;;1.40;0.80;;;;;;;15.28;91.85;98144.06;4078995;29;20672;-92
2022/12/31 05:43:09;;;;;;;3.27;1.00;;;;;;;15.24;90.37;98135.59;4091072;28;20659;-91
2022/12/31 05:45:12;;;;;;;1.50;0.63;;;;;;;15.26;92.67;98141.59;4088872;28;20671;-91
2022/12/31 05:47:16;;;;;;;1.60;0.87;;;;;;;15.24;91.87;98129.53;4090342;28;20652;-92
2022/12/31 05:49:19;;;;;;;1.73;1.47;;;;;;;15.24;92.18;98140.03;4090345;29;20723;-92
2022/12/31 05:51:23;;;;;;;1.20;0.67;;;;;;;15.23;91.39;98138.38;4091588;28;20652;-91
2022/12/31 05:53:26;;;;;;;1.30;0.80;;;;;;;15.27;90.76;98142.41;4092872;28;20633;-92
2022/12/31 05:55:29;;;;;;;1.50;0.80;;;;;;;15.29;92.65;98145.72;4093500;28;20644;-91
2022/12/31 05:57:32;;;;;;;2.33;0.80;;;;;;;15.29;93.19;98146.56;4091987;29;20675;-91
2022/12/31 05:59:35;;;;;;;2.00;0.87;;;;;;;15.29;91.69;98151.81;4096675;28;20662;-92
2022/12/31 06:01:39;;;;;;;1.40;0.80;;;;;;;15.31;92.27;98143.81;4093643;28;20676;-92
2022/12/31 06:03:42;;;;;;;3.00;0.80;;;;;;;15.32;92.19;98148.94;4103503;28;20652;-92
2022/12/31 06:05:45;;;;;;;1.40;0.70;;;;;;;15.28;92.50;98146.72;4074412;29;20634;-90
2022/12/31 06:07:50;;;;;;;1.87;0.80;;;;;;;15.26;93.16;98143.34;4088996;28;20680;-91
2022/12/31 06:09:53;;;;;;;1.47;0.90;;;;;;;15.28;92.60;98144.91;4108607;28;20698;-92
2022/12/31 06:11:56;;;;;;;1.57;0.90;;;;;;;15.27;92.00;98159.00;4092653;28;20783;-92
2022/12/31 06:13:59;;;;;;;1.60;0.90;;;;;;;15.28;92.56;98150.16;4105362;28;20682;-92
2022/12/31 06:16:05;;;;;;;2.30;0.77;;;;;;;15.26;92.11;98159.13;4093603;28;21037;-92
2022/12/31 06:18:08;;;;;;;1.50;1.07;;;;;;;15.28;91.68;98154.59;4096998;28;20723;-92
2022/12/31 06:20:11;;;;;;;2.03;1.10;;;;;;;15.26;93.19;98161.75;4093696;28;20636;-91
2022/12/31 06:22:15;;;;;;;1.87;1.20;;;;;;;15.24;93.59;98158.44;4086849;28;20673;-92
2022/12/31 06:24:20;;;;;;;1.50;0.97;;;;;;;15.25;93.05;98165.38;4088457;28;20628;-92
2022/12/31 06:26:23;;;;;;;1.57;0.90;;;;;;;15.25;94.13;98165.38;4075799;29;20641;-90
2022/12/31 06:28:26;;;;;;;1.60;1.00;;;;;;;15.24;93.15;98175.03;4091661;28;20679;-91
2022/12/31 06:30:29;;;;;;;2.13;1.00;;;;;;;15.23;92.50;98177.78;4105162;28;21105;-92
2022/12/31 06:32:34;;;;;;;1.93;0.97;;;;;;;15.22;91.79;98181.38;4097639;28;20628;-92
2022/12/31 06:34:37;;;;;;;1.70;1.00;;;;;;;15.25;93.43;98181.13;4109083;28;20644;-92
2022/12/31 06:36:41;;;;;;;2.40;1.10;;;;;;;15.25;91.79;98181.13;4095905;28;20730;-92
2022/12/31 06:38:44;;;;;;;1.50;0.90;;;;;;;15.26;94.04;98188.03;4093821;28;20750;-91
2022/12/31 06:40:49;;;;;;;1.50;0.90;;;;;;;15.27;91.87;98181.81;4092785;29;20635;-92
2022/12/31 06:42:52;;;;;;;1.43;1.00;;;;;;;15.23;93.81;98186.50;4093706;29;20627;-90
2022/12/31 06:45:02;;;;;;;2.27;0.80;;;;;;;15.23;92.78;98190.91;4104110;28;20674;-92
2022/12/31 06:47:05;;;;;;;2.17;1.00;;;;;;;15.22;93.34;98184.03;4093878;28;21116;-92
2022/12/31 06:49:08;;;;;;;2.03;1.00;;;;;;;15.17;93.36;98188.84;4096664;28;21314;-91
2022/12/31 06:51:13;;;;;;;1.43;1.07;;;;;;;15.17;93.02;98183.59;4110598;28;20690;-92
2022/12/31 06:53:19;;;;;;;1.50;0.90;;;;;;;15.19;92.62;98186.91;4091461;28;20634;-91
2022/12/31 06:55:23;;;;;;;1.40;0.80;;;;;;;15.19;93.49;98181.66;4094376;28;20639;-91
2022/12/31 06:57:28;;;;;;;2.53;1.00;;;;;;;15.18;94.00;98172.09;4100607;28;20644;-93
2022/12/31 06:59:31;;;;;;;1.73;0.93;;;;;;;15.18;92.60;98187.84;4094200;28;20643;-92
2022/12/31 07:01:48;;;;;;;1.73;1.00;;;;;;;15.15;92.87;98185.47;4081190;29;20660;-92
2022/12/31 07:03:56;;;;;;;1.60;1.20;;;;;;;15.12;91.96;98191.81;4092394;29;20651;-91
2022/12/31 07:06:03;;;;;;;1.33;0.80;;;;;;;15.07;93.73;98188.72;4109787;28;20714;-91
2022/12/31 07:08:15;;;;;;;1.57;0.87;;;;;;;15.10;92.88;98185.84;4076861;29;21196;-91
2022/12/31 07:10:24;;;;;;;1.73;0.80;;;;;;;15.13;92.14;98188.22;4078171;29;20715;-90
2022/12/31 07:12:41;;;;;;;1.30;0.80;;;;;;;15.13;92.45;98180.34;4096294;28;20639;-94
2022/12/31 07:14:46;;;;;;;2.13;0.90;;;;;;;15.18;92.89;98188.72;4099235;28;21243;-93
2022/12/31 07:16:56;;;;;;;3.70;1.10;;;;;;;15.19;92.34;98194.78;4091503;28;20665;-91
2022/12/31 07:19:10;;;;;;;1.30;0.70;;;;;;;15.20;93.29;98188.59;4091689;28;21178;-88
2022/12/31 07:21:15;;;;;;;1.63;1.00;;;;;;;15.21;91.88;98191.06;4088896;28;20735;-91
2022/12/31 07:23:19;;;;;;;1.83;0.83;;;;;;;15.24;90.82;98200.47;4075356;29;20637;-90
2022/12/31 07:25:23;;;;;;;1.50;1.03;;;;;;;15.28;92.40;98196.63;4090892;28;20751;-91
2022/12/31 07:27:43;;;;;;;2.23;0.80;;;;;;;15.27;90.55;98200.22;4090365;28;20652;-91
2022/12/31 07:29:59;;;;;;;2.50;1.10;;;;;;;15.30;91.57;98194.69;4087760;28;20643;-90
2022/12/31 07:32:11;;;;;;;1.77;1.00;;;;;;;15.31;91.05;98206.88;4099060;28;21011;-90
2022/12/31 07:34:20;;;;;;;1.40;0.80;;;;;;;15.34;91.77;98201.38;4090198;28;20642;-90
2022/12/31 07:36:45;;;;;;;3.57;1.10;;;;;;;15.36;90.69;98200.25;4103717;28;20642;-89
2022/12/31 07:38:53;;;;;;;4.30;2.20;;;;;;;15.39;92.45;98197.38;4091869;28;20640;-90
2022/12/31 07:41:04;;;;;;;4.07;1.67;;;;;;;15.41;90.26;98198.09;4096004;28;20726;-90
2022/12/31 07:43:18;;;;;;;2.10;1.17;;;;;;;15.46;90.29;98205.59;4108442;28;20749;-90
2022/12/31 07:45:26;;;;;;;2.93;1.57;;;;;;;15.48;91.30;98208.91;4075835;29;20636;-89
2022/12/31 07:47:29;;;;;;;1.87;1.10;;;;;;;15.50;90.73;98212.22;4105674;28;20649;-89
2022/12/31 07:49:34;;;;;;;2.40;1.47;;;;;;;15.51;90.32;98219.16;4090611;28;21211;-90
2022/12/31 07:51:37;;;;;;;1.57;0.93;;;;;;;15.56;89.22;98212.53;4108561;28;20649;-90
2022/12/31 07:53:40;;;;;;;3.43;1.00;;;;;;;15.57;91.29;98212.41;4094626;28;20647;-89
2022/12/31 07:55:44;;;;;;;1.87;1.10;;;;;;;15.58;90.51;98203.53;4112473;28;20678;-89
2022/12/31 07:57:51;;;;;;;3.23;1.30;;;;;;;15.62;90.09;98214.63;4079233;29;20638;-90
2022/12/31 08:00:05;;;;;;;3.17;1.20;;;;;;;15.63;90.38;98211.03;4091971;28;20686;-90
2022/12/31 08:02:22;;;;;;;2.03;1.00;;;;;;;15.63;89.72;98214.47;4106163;28;20685;-89
2022/12/31 08:04:28;;;;;;;1.93;0.93;;;;;;;15.65;89.15;98207.31;4076816;29;20642;-89
2022/12/31 08:06:38;;;;;;;1.93;1.00;;;;;;;15.68;89.04;98217.56;4093799;28;20646;-90
2022/12/31 08:08:49;;;;;;;1.90;1.07;;;;;;;15.69;88.29;98224.47;4106164;28;20681;-90
2022/12/31 08:11:02;;;;;;;1.87;1.00;;;;;;;15.75;88.15;98231.84;4090403;28;20651;-90
2022/12/31 08:13:09;;;;;;;1.70;1.00;;;;;;;15.78;88.08;98244.72;4105775;28;20627;-89
2022/12/31 08:15:17;;;;;;;1.53;1.00;;;;;;;15.82;89.23;98238.25;4093243;28;21048;-92
2022/12/31 08:17:20;;;;;;;2.30;1.03;;;;;;;15.85;89.25;98243.22;4093028;28;21046;-89
2022/12/31 08:19:27;;;;;;;1.97;0.93;;;;;;;15.87;89.33;98251.81;4089404;28;20653;-91
2022/12/31 08:21:36;;;;;;;2.90;0.90;;;;;;;15.91;88.90;98247.16;4089767;28;20636;-89
2022/12/31 08:23:44;;;;;;;1.90;1.30;;;;;;;15.94;88.22;98250.31;4092036;28;20703;-88
2022/12/31 08:25:59;;;;;;;3.07;1.10;;;;;;;15.98;88.51;98246.44;4092133;29;20703;-90
2022/12/31 08:28:07;;;;;;;2.40;1.00;;;;;;;16.03;86.69;98255.63;4088563;28;20675;-95
2022/12/31 08:30:15;;;;;;;2.17;1.20;;;;;;;16.09;87.34;98254.25;4090478;28;20644;-91
2022/12/31 08:32:22;;;;;;;1.53;0.80;;;;;;;16.15;87.26;98256.34;4110222;28;20711;-92
2022/12/31 08:34:31;;;;;;;1.60;1.10;;;;;;;16.21;87.34;98263.72;4106078;28;20672;-92
2022/12/31 08:36:44;;;;;;;1.70;0.97;;;;;;;16.23;86.95;98252.09;4095246;28;20636;-94
2022/12/31 08:38:51;;;;;;;1.60;0.90;;;;;;;16.26;86.01;98264.97;4093553;29;20653;-92
2022/12/31 08:40:59;;;;;;;1.87;0.97;;;;;;;16.31;86.65;98261.94;4076846;29;21028;-93
2022/12/31 08:43:12;;;;;;;1.50;0.90;;;;;;;16.33;85.44;98260.84;4072520;29;20677;-95
2022/12/31 08:45:22;;;;;;;1.70;0.90;;;;;;;16.35;87.07;98260.72;4074106;29;20625;-94
2022/12/31 08:47:31;;;;;;;3.30;1.10;;;;;;;16.36;85.97;98265.03;4091365;28;21243;-90
2022/12/31 08:49:45;;;;;;;2.37;0.80;;;;;;;16.37;85.65;98261.41;4093394;28;20709;-92
2022/12/31 08:51:57;;;;;;;1.67;0.90;;;;;;;16.40;85.38;98269.03;4101588;29;20699;-94
2022/12/31 08:54:18;;;;;;;3.27;1.20;;;;;;;16.38;86.46;98279.69;4076765;29;20649;-94
2022/12/31 08:56:27;;;;;;;1.60;0.90;;;;;;;16.42;85.92;98277.63;4113189;28;20690;-93
2022/12/31 08:58:39;;;;;;;2.30;0.90;;;;;;;16.40;85.28;98280.38;4089128;28;20648;-93
2022/12/31 09:00:44;;;;;;;1.40;0.80;;;;;;;16.41;85.83;98291.78;4089555;28;20650;-89
2022/12/31 09:03:01;;;;;;;2.13;1.10;;;;;;;16.43;84.60;98292.47;4090076;28;20639;-90
2022/12/31 09:05:11;;;;;;;1.30;0.80;;;;;;;16.45;84.84;98304.53;4104514;28;20727;-90
2022/12/31 09:07:16;;;;;;;1.40;0.90;;;;;;;16.49;86.13;98295.38;4091453;28;21294;-91
2022/12/31 09:09:24;;;;;;;3.93;1.20;;;;;;;16.50;84.94;98312.84;4090926;28;20677;-92
2022/12/31 09:11:32;;;;;;;2.50;1.00;;;;;;;16.51;84.59;98320.63;4085816;28;20626;-91
2022/12/31 09:13:45;;;;;;;5.73;4.07;;;;;;;16.49;85.43;98307.72;4102830;28;20680;-88
2022/12/31 09:15:55;;;;;;;2.33;1.00;;;;;;;16.50;85.25;98306.75;4107208;28;21320;-92
2022/12/31 09:17:58;;;;;;;2.90;1.00;;;;;;;16.53;85.44;98309.94;4089852;28;20676;-91
2022/12/31 09:20:02;;;;;;;1.93;0.83;;;;;;;16.56;84.76;98288.59;4089221;29;21315;-93
2022/12/31 09:22:06;;;;;;;1.90;1.10;;;;;;;16.58;85.28;98311.22;4091583;28;20718;-89
2022/12/31 09:24:12;;;;;;;1.87;1.10;;;;;;;16.56;85.20;98307.84;4090771;28;20638;-92
2022/12/31 09:26:28;;;;;;;1.60;0.73;;;;;;;16.65;84.88;98307.03;4091254;28;20653;-91
2022/12/31 09:28:38;;;;;;;1.67;0.90;;;;;;;16.82;84.35;98314.25;4093713;28;20771;-92
2022/12/31 09:30:48;;;;;;;1.60;0.90;;;;;;;16.94;83.58;98313.16;4074372;29;20761;-90
2022/12/31 09:33:01;;;;;;;2.97;1.10;;;;;;;17.02;83.97;98313.34;4089608;28;20661;-91
2022/12/31 09:35:12;;;;;;;1.77;1.20;;;;;;;17.16;83.79;98312.91;4088657;28;20679;-92
2022/12/31 09:37:20;;;;;;;1.53;0.90;;;;;;;17.25;82.65;98305.00;4105564;28;20628;-94
2022/12/31 09:39:31;;;;;;;1.67;0.80;;;;;;;17.32;82.68;98307.91;4095360;28;20647;-93
2022/12/31 09:41:56;;;;;;;2.40;0.70;;;;;;;17.35;83.18;98323.44;4077356;29;20634;-95
2022/12/31 09:44:27;;;;;;;2.00;0.90;;;;;;;17.38;82.39;98318.75;4093943;29;20757;-95
2022/12/31 09:47:07;;;;;;;1.77;1.00;;;;;;;17.32;82.09;98319.31;4090788;28;20644;-92
2022/12/31 09:49:50;;;;;;;1.63;0.80;;;;;;;17.27;82.40;98312.78;4079587;29;20692;-91
2022/12/31 09:51:57;;;;;;;2.73;1.23;;;;;;;17.27;82.58;98318.06;4100101;28;20643;-96
2022/12/31 09:54:23;;;;;;;2.73;1.00;;;;;;;17.19;83.00;98321.34;4092873;28;20740;-95
2022/12/31 09:56:29;;;;;;;1.60;1.00;;;;;;;17.18;82.14;98313.59;4092062;28;20643;-92
2022/12/31 09:58:41;;;;;;;1.83;0.90;;;;;;;17.27;82.86;98320.69;4077380;29;20658;-91
2022/12/31 10:00:52;;;;;;;4.80;3.17;;;;;;;17.38;82.47;98328.44;4094594;28;20618;-94
2022/12/31 10:03:16;;;;;;;2.97;1.63;;;;;;;17.48;81.73;98315.13;4089293;28;21757;-93
2022/12/31 10:05:35;;;;;;;2.93;1.20;;;;;;;17.58;81.42;98315.94;4105461;28;20661;-93
2022/12/31 10:07:46;;;;;;;2.10;1.27;;;;;;;17.62;82.67;98317.31;4086622;28;20734;-91